sensor_id;sensor_type;location;lat;lon;timestamp;P1;durP1;ratioP1;P2;durP2;ratioP2
30647;SDS011;17683;53.360;9.736;2022-11-25T00:00:53;19.02;;;11.90;;
30647;SDS011;17683;53.360;9.736;2022-11-25T00:03:38;17.83;;;10.98;;
30647;SDS011;17683;53.360;9.736;2022-11-25T00:06:15;21.20;;;12.38;;
30647;SDS011;17683;53.360;9.736;2022-11-25T00:08:46;20.40;;;12.05;;
30647;SDS011;17683;53.360;9.736;2022-11-25T00:11:13;18.48;;;11.60;;
30647;SDS011;17683;53.360;9.736;2022-11-25T00:13:40;15.32;;;10.68;;
30647;SDS011;17683;53.360;9.736;2022-11-25T00:16:08;20.05;;;12.27;;
30647;SDS011;17683;53.360;9.736;2022-11-25T00:18:35;19.27;;;12.10;;
30647;SDS011;17683;53.360;9.736;2022-11-25T00:21:06;21.10;;;12.32;;
30647;SDS011;17683;53.360;9.736;2022-11-25T00:23:33;15.90;;;11.05;;
30647;SDS011;17683;53.360;9.736;2022-11-25T00:26:13;19.95;;;13.13;;
30647;SDS011;17683;53.360;9.736;2022-11-25T00:28:40;25.75;;;13.43;;
30647;SDS011;17683;53.360;9.736;2022-11-25T00:31:12;22.67;;;12.80;;
30647;SDS011;17683;53.360;9.736;2022-11-25T00:33:39;18.35;;;12.50;;
30647;SDS011;17683;53.360;9.736;2022-11-25T00:36:06;24.27;;;12.40;;
30647;SDS011;17683;53.360;9.736;2022-11-25T00:38:40;23.10;;;12.05;;
30647;SDS011;17683;53.360;9.736;2022-11-25T00:41:06;20.48;;;12.05;;
30647;SDS011;17683;53.360;9.736;2022-11-25T00:43:50;18.83;;;12.55;;
30647;SDS011;17683;53.360;9.736;2022-11-25T00:46:34;27.30;;;13.88;;
30647;SDS011;17683;53.360;9.736;2022-11-25T00:49:00;21.88;;;13.10;;
30647;SDS011;17683;53.360;9.736;2022-11-25T00:51:25;21.02;;;13.65;;
30647;SDS011;17683;53.360;9.736;2022-11-25T00:53:51;22.30;;;14.05;;
30647;SDS011;17683;53.360;9.736;2022-11-25T00:56:18;22.02;;;12.63;;
30647;SDS011;17683;53.360;9.736;2022-11-25T00:58:43;22.63;;;13.70;;
30647;SDS011;17683;53.360;9.736;2022-11-25T01:01:10;19.15;;;12.02;;
30647;SDS011;17683;53.360;9.736;2022-11-25T01:03:36;21.52;;;12.73;;
30647;SDS011;17683;53.360;9.736;2022-11-25T01:06:03;23.45;;;14.48;;
30647;SDS011;17683;53.360;9.736;2022-11-25T01:08:30;20.85;;;12.88;;
30647;SDS011;17683;53.360;9.736;2022-11-25T01:10:57;20.55;;;12.88;;
30647;SDS011;17683;53.360;9.736;2022-11-25T01:13:23;23.65;;;13.38;;
30647;SDS011;17683;53.360;9.736;2022-11-25T01:15:49;23.60;;;12.20;;
30647;SDS011;17683;53.360;9.736;2022-11-25T01:18:15;22.05;;;12.30;;
30647;SDS011;17683;53.360;9.736;2022-11-25T01:20:40;17.55;;;12.18;;
30647;SDS011;17683;53.360;9.736;2022-11-25T01:23:06;23.98;;;13.40;;
30647;SDS011;17683;53.360;9.736;2022-11-25T01:25:35;19.98;;;12.65;;
30647;SDS011;17683;53.360;9.736;2022-11-25T01:28:01;20.83;;;12.40;;
30647;SDS011;17683;53.360;9.736;2022-11-25T01:30:27;22.15;;;12.25;;
30647;SDS011;17683;53.360;9.736;2022-11-25T01:32:52;24.88;;;13.32;;
30647;SDS011;17683;53.360;9.736;2022-11-25T01:35:18;22.90;;;13.32;;
30647;SDS011;17683;53.360;9.736;2022-11-25T01:37:44;19.63;;;12.32;;
30647;SDS011;17683;53.360;9.736;2022-11-25T01:40:09;25.38;;;12.55;;
30647;SDS011;17683;53.360;9.736;2022-11-25T01:42:40;18.98;;;11.98;;
30647;SDS011;17683;53.360;9.736;2022-11-25T01:45:31;20.83;;;11.75;;
30647;SDS011;17683;53.360;9.736;2022-11-25T01:48:00;21.35;;;12.32;;
30647;SDS011;17683;53.360;9.736;2022-11-25T01:50:31;22.55;;;12.30;;
30647;SDS011;17683;53.360;9.736;2022-11-25T01:52:59;15.88;;;10.35;;
30647;SDS011;17683;53.360;9.736;2022-11-25T01:55:28;17.83;;;10.45;;
30647;SDS011;17683;53.360;9.736;2022-11-25T01:57:57;17.30;;;10.80;;
30647;SDS011;17683;53.360;9.736;2022-11-25T02:00:29;18.05;;;12.05;;
30647;SDS011;17683;53.360;9.736;2022-11-25T02:02:56;16.92;;;10.82;;
30647;SDS011;17683;53.360;9.736;2022-11-25T02:05:29;16.92;;;11.63;;
30647;SDS011;17683;53.360;9.736;2022-11-25T02:08:35;19.80;;;10.65;;
30647;SDS011;17683;53.360;9.736;2022-11-25T02:11:02;21.48;;;10.65;;
30647;SDS011;17683;53.360;9.736;2022-11-25T02:13:31;19.02;;;10.65;;
30647;SDS011;17683;53.360;9.736;2022-11-25T02:15:57;23.33;;;11.80;;
30647;SDS011;17683;53.360;9.736;2022-11-25T02:18:24;22.40;;;11.07;;
30647;SDS011;17683;53.360;9.736;2022-11-25T02:20:50;14.80;;;10.82;;
30647;SDS011;17683;53.360;9.736;2022-11-25T02:26:06;19.05;;;11.27;;
30647;SDS011;17683;53.360;9.736;2022-11-25T02:28:32;19.02;;;10.00;;
30647;SDS011;17683;53.360;9.736;2022-11-25T02:30:59;16.90;;;9.00;;
30647;SDS011;17683;53.360;9.736;2022-11-25T02:33:25;14.55;;;9.50;;
30647;SDS011;17683;53.360;9.736;2022-11-25T02:35:53;16.70;;;9.13;;
30647;SDS011;17683;53.360;9.736;2022-11-25T02:38:26;18.15;;;9.95;;
30647;SDS011;17683;53.360;9.736;2022-11-25T02:41:15;17.30;;;9.63;;
30647;SDS011;17683;53.360;9.736;2022-11-25T02:43:49;20.52;;;10.75;;
30647;SDS011;17683;53.360;9.736;2022-11-25T02:46:15;21.10;;;9.73;;
30647;SDS011;17683;53.360;9.736;2022-11-25T02:48:43;21.08;;;10.07;;
30647;SDS011;17683;53.360;9.736;2022-11-25T02:51:11;19.00;;;9.93;;
30647;SDS011;17683;53.360;9.736;2022-11-25T02:53:39;17.10;;;10.32;;
30647;SDS011;17683;53.360;9.736;2022-11-25T02:56:06;16.70;;;9.15;;
30647;SDS011;17683;53.360;9.736;2022-11-25T02:58:33;18.42;;;10.45;;
30647;SDS011;17683;53.360;9.736;2022-11-25T03:00:59;18.63;;;10.45;;
30647;SDS011;17683;53.360;9.736;2022-11-25T03:03:24;34.53;;;10.93;;
30647;SDS011;17683;53.360;9.736;2022-11-25T03:05:50;17.98;;;11.00;;
30647;SDS011;17683;53.360;9.736;2022-11-25T03:08:16;20.02;;;9.98;;
30647;SDS011;17683;53.360;9.736;2022-11-25T03:10:42;23.80;;;11.32;;
30647;SDS011;17683;53.360;9.736;2022-11-25T03:13:08;23.27;;;10.38;;
30647;SDS011;17683;53.360;9.736;2022-11-25T03:15:34;20.38;;;11.35;;
30647;SDS011;17683;53.360;9.736;2022-11-25T03:18:02;27.45;;;10.43;;
30647;SDS011;17683;53.360;9.736;2022-11-25T03:20:28;19.70;;;10.60;;
30647;SDS011;17683;53.360;9.736;2022-11-25T03:22:54;28.38;;;11.02;;
30647;SDS011;17683;53.360;9.736;2022-11-25T03:25:20;25.40;;;9.77;;
30647;SDS011;17683;53.360;9.736;2022-11-25T03:27:45;23.77;;;11.35;;
30647;SDS011;17683;53.360;9.736;2022-11-25T03:30:13;19.48;;;9.75;;
30647;SDS011;17683;53.360;9.736;2022-11-25T03:32:41;26.23;;;10.77;;
30647;SDS011;17683;53.360;9.736;2022-11-25T03:35:07;17.27;;;9.25;;
30647;SDS011;17683;53.360;9.736;2022-11-25T03:37:33;26.08;;;10.02;;
30647;SDS011;17683;53.360;9.736;2022-11-25T03:39:59;21.23;;;10.57;;
30647;SDS011;17683;53.360;9.736;2022-11-25T03:42:25;21.35;;;9.00;;
30647;SDS011;17683;53.360;9.736;2022-11-25T03:44:51;15.82;;;9.63;;
30647;SDS011;17683;53.360;9.736;2022-11-25T03:47:16;21.10;;;10.52;;
30647;SDS011;17683;53.360;9.736;2022-11-25T03:49:42;17.92;;;9.55;;
30647;SDS011;17683;53.360;9.736;2022-11-25T03:52:08;18.35;;;9.20;;
30647;SDS011;17683;53.360;9.736;2022-11-25T03:54:33;19.75;;;9.35;;
30647;SDS011;17683;53.360;9.736;2022-11-25T03:56:59;15.88;;;8.32;;
30647;SDS011;17683;53.360;9.736;2022-11-25T03:59:25;19.63;;;9.02;;
30647;SDS011;17683;53.360;9.736;2022-11-25T04:01:50;23.25;;;9.32;;
30647;SDS011;17683;53.360;9.736;2022-11-25T04:04:16;15.93;;;7.72;;
30647;SDS011;17683;53.360;9.736;2022-11-25T04:06:42;18.73;;;7.85;;
30647;SDS011;17683;53.360;9.736;2022-11-25T04:09:08;24.10;;;8.77;;
30647;SDS011;17683;53.360;9.736;2022-11-25T04:11:36;19.80;;;7.78;;
30647;SDS011;17683;53.360;9.736;2022-11-25T04:14:20;13.88;;;7.95;;
30647;SDS011;17683;53.360;9.736;2022-11-25T04:16:46;16.92;;;7.75;;
30647;SDS011;17683;53.360;9.736;2022-11-25T04:19:12;21.92;;;7.50;;
30647;SDS011;17683;53.360;9.736;2022-11-25T04:21:38;18.73;;;8.35;;
30647;SDS011;17683;53.360;9.736;2022-11-25T04:24:04;17.48;;;7.25;;
30647;SDS011;17683;53.360;9.736;2022-11-25T04:26:30;18.40;;;7.15;;
30647;SDS011;17683;53.360;9.736;2022-11-25T04:28:55;16.67;;;7.35;;
30647;SDS011;17683;53.360;9.736;2022-11-25T04:31:21;17.23;;;7.72;;
30647;SDS011;17683;53.360;9.736;2022-11-25T04:33:47;25.77;;;7.65;;
30647;SDS011;17683;53.360;9.736;2022-11-25T04:36:13;16.90;;;7.43;;
30647;SDS011;17683;53.360;9.736;2022-11-25T04:38:38;22.10;;;7.38;;
30647;SDS011;17683;53.360;9.736;2022-11-25T04:41:04;17.27;;;7.57;;
30647;SDS011;17683;53.360;9.736;2022-11-25T04:43:30;15.13;;;6.93;;
30647;SDS011;17683;53.360;9.736;2022-11-25T04:45:56;14.73;;;6.93;;
30647;SDS011;17683;53.360;9.736;2022-11-25T04:48:23;12.93;;;6.97;;
30647;SDS011;17683;53.360;9.736;2022-11-25T04:50:48;20.88;;;8.00;;
30647;SDS011;17683;53.360;9.736;2022-11-25T04:53:14;16.02;;;7.18;;
30647;SDS011;17683;53.360;9.736;2022-11-25T04:55:40;22.33;;;7.78;;
30647;SDS011;17683;53.360;9.736;2022-11-25T04:58:05;19.85;;;7.05;;
30647;SDS011;17683;53.360;9.736;2022-11-25T05:00:31;17.73;;;6.55;;
30647;SDS011;17683;53.360;9.736;2022-11-25T05:02:57;16.90;;;7.00;;
30647;SDS011;17683;53.360;9.736;2022-11-25T05:05:23;15.82;;;6.93;;
30647;SDS011;17683;53.360;9.736;2022-11-25T05:07:48;12.68;;;6.88;;
30647;SDS011;17683;53.360;9.736;2022-11-25T05:10:14;26.92;;;7.50;;
30647;SDS011;17683;53.360;9.736;2022-11-25T05:12:40;14.75;;;6.85;;
30647;SDS011;17683;53.360;9.736;2022-11-25T05:15:06;14.65;;;6.78;;
30647;SDS011;17683;53.360;9.736;2022-11-25T05:17:32;15.13;;;5.93;;
30647;SDS011;17683;53.360;9.736;2022-11-25T05:19:59;16.33;;;6.70;;
30647;SDS011;17683;53.360;9.736;2022-11-25T05:22:26;19.60;;;7.22;;
30647;SDS011;17683;53.360;9.736;2022-11-25T05:24:53;11.02;;;6.07;;
30647;SDS011;17683;53.360;9.736;2022-11-25T05:27:20;19.95;;;6.60;;
30647;SDS011;17683;53.360;9.736;2022-11-25T05:29:46;14.80;;;6.10;;
30647;SDS011;17683;53.360;9.736;2022-11-25T05:32:12;17.75;;;6.50;;
30647;SDS011;17683;53.360;9.736;2022-11-25T05:34:39;16.20;;;5.65;;
30647;SDS011;17683;53.360;9.736;2022-11-25T05:37:06;14.32;;;6.28;;
30647;SDS011;17683;53.360;9.736;2022-11-25T05:39:32;17.83;;;7.03;;
30647;SDS011;17683;53.360;9.736;2022-11-25T05:41:58;20.40;;;5.70;;
30647;SDS011;17683;53.360;9.736;2022-11-25T05:44:24;13.18;;;6.40;;
30647;SDS011;17683;53.360;9.736;2022-11-25T05:46:50;12.73;;;5.68;;
30647;SDS011;17683;53.360;9.736;2022-11-25T05:49:16;10.85;;;6.07;;
30647;SDS011;17683;53.360;9.736;2022-11-25T05:51:43;14.48;;;5.78;;
30647;SDS011;17683;53.360;9.736;2022-11-25T05:54:09;14.70;;;5.72;;
30647;SDS011;17683;53.360;9.736;2022-11-25T05:56:35;18.25;;;7.28;;
30647;SDS011;17683;53.360;9.736;2022-11-25T05:59:01;21.05;;;6.05;;
30647;SDS011;17683;53.360;9.736;2022-11-25T06:01:28;12.27;;;5.38;;
30647;SDS011;17683;53.360;9.736;2022-11-25T06:03:54;18.58;;;5.53;;
30647;SDS011;17683;53.360;9.736;2022-11-25T06:06:23;15.30;;;6.22;;
30647;SDS011;17683;53.360;9.736;2022-11-25T06:08:48;19.38;;;6.80;;
30647;SDS011;17683;53.360;9.736;2022-11-25T06:11:15;15.02;;;4.97;;
30647;SDS011;17683;53.360;9.736;2022-11-25T06:13:41;18.13;;;5.97;;
30647;SDS011;17683;53.360;9.736;2022-11-25T06:16:11;12.57;;;5.20;;
30647;SDS011;17683;53.360;9.736;2022-11-25T06:18:39;14.30;;;5.65;;
30647;SDS011;17683;53.360;9.736;2022-11-25T06:21:05;16.77;;;5.07;;
30647;SDS011;17683;53.360;9.736;2022-11-25T06:23:32;12.05;;;5.47;;
30647;SDS011;17683;53.360;9.736;2022-11-25T06:26:05;10.45;;;5.05;;
30647;SDS011;17683;53.360;9.736;2022-11-25T06:28:32;13.60;;;6.00;;
30647;SDS011;17683;53.360;9.736;2022-11-25T06:31:08;11.52;;;4.88;;
30647;SDS011;17683;53.360;9.736;2022-11-25T06:33:38;16.90;;;5.38;;
30647;SDS011;17683;53.360;9.736;2022-11-25T06:36:05;21.35;;;5.07;;
30647;SDS011;17683;53.360;9.736;2022-11-25T06:38:32;11.73;;;5.60;;
30647;SDS011;17683;53.360;9.736;2022-11-25T06:41:03;16.98;;;5.40;;
30647;SDS011;17683;53.360;9.736;2022-11-25T06:43:29;18.70;;;6.47;;
30647;SDS011;17683;53.360;9.736;2022-11-25T06:51:17;11.95;;;4.18;;
30647;SDS011;17683;53.360;9.736;2022-11-25T06:53:43;19.17;;;5.30;;
30647;SDS011;17683;53.360;9.736;2022-11-25T06:56:19;16.58;;;5.65;;
30647;SDS011;17683;53.360;9.736;2022-11-25T06:58:46;15.05;;;5.03;;
30647;SDS011;17683;53.360;9.736;2022-11-25T07:03:44;17.58;;;4.97;;
30647;SDS011;17683;53.360;9.736;2022-11-25T07:06:11;12.93;;;4.88;;
30647;SDS011;17683;53.360;9.736;2022-11-25T07:08:39;15.35;;;5.25;;
30647;SDS011;17683;53.360;9.736;2022-11-25T07:11:05;12.82;;;4.65;;
30647;SDS011;17683;53.360;9.736;2022-11-25T07:13:34;17.73;;;5.05;;
30647;SDS011;17683;53.360;9.736;2022-11-25T07:16:02;17.52;;;4.80;;
30647;SDS011;17683;53.360;9.736;2022-11-25T07:18:31;15.43;;;4.78;;
30647;SDS011;17683;53.360;9.736;2022-11-25T07:21:02;21.10;;;5.10;;
30647;SDS011;17683;53.360;9.736;2022-11-25T07:23:29;10.23;;;4.80;;
30647;SDS011;17683;53.360;9.736;2022-11-25T07:25:59;15.95;;;4.20;;
30647;SDS011;17683;53.360;9.736;2022-11-25T07:28:26;14.50;;;4.72;;
30647;SDS011;17683;53.360;9.736;2022-11-25T07:30:52;17.88;;;4.93;;
30647;SDS011;17683;53.360;9.736;2022-11-25T07:33:18;20.35;;;5.00;;
30647;SDS011;17683;53.360;9.736;2022-11-25T07:35:43;10.57;;;4.43;;
30647;SDS011;17683;53.360;9.736;2022-11-25T07:38:09;12.23;;;5.03;;
30647;SDS011;17683;53.360;9.736;2022-11-25T07:40:35;15.20;;;5.18;;
30647;SDS011;17683;53.360;9.736;2022-11-25T07:43:00;17.17;;;5.68;;
30647;SDS011;17683;53.360;9.736;2022-11-25T07:45:26;10.50;;;4.35;;
30647;SDS011;17683;53.360;9.736;2022-11-25T07:47:52;21.63;;;5.60;;
30647;SDS011;17683;53.360;9.736;2022-11-25T07:50:17;12.85;;;5.07;;
30647;SDS011;17683;53.360;9.736;2022-11-25T07:52:43;10.35;;;4.68;;
30647;SDS011;17683;53.360;9.736;2022-11-25T07:55:09;13.80;;;4.85;;
30647;SDS011;17683;53.360;9.736;2022-11-25T07:57:34;15.48;;;5.03;;
30647;SDS011;17683;53.360;9.736;2022-11-25T08:00:00;16.67;;;5.93;;
30647;SDS011;17683;53.360;9.736;2022-11-25T08:02:26;14.52;;;5.28;;
30647;SDS011;17683;53.360;9.736;2022-11-25T08:04:52;18.80;;;5.18;;
30647;SDS011;17683;53.360;9.736;2022-11-25T08:07:17;13.00;;;5.50;;
30647;SDS011;17683;53.360;9.736;2022-11-25T08:09:43;20.52;;;5.03;;
30647;SDS011;17683;53.360;9.736;2022-11-25T08:12:09;15.57;;;5.45;;
30647;SDS011;17683;53.360;9.736;2022-11-25T08:14:34;17.35;;;6.32;;
30647;SDS011;17683;53.360;9.736;2022-11-25T08:17:00;12.90;;;4.50;;
30647;SDS011;17683;53.360;9.736;2022-11-25T08:19:28;14.10;;;4.13;;
30647;SDS011;17683;53.360;9.736;2022-11-25T08:21:54;17.83;;;4.55;;
30647;SDS011;17683;53.360;9.736;2022-11-25T08:24:20;17.55;;;5.43;;
30647;SDS011;17683;53.360;9.736;2022-11-25T08:26:46;18.73;;;4.90;;
30647;SDS011;17683;53.360;9.736;2022-11-25T08:29:13;12.70;;;4.97;;
30647;SDS011;17683;53.360;9.736;2022-11-25T08:31:40;17.05;;;4.93;;
30647;SDS011;17683;53.360;9.736;2022-11-25T08:34:06;14.07;;;3.55;;
30647;SDS011;17683;53.360;9.736;2022-11-25T08:36:33;17.42;;;5.20;;
30647;SDS011;17683;53.360;9.736;2022-11-25T08:39:01;13.32;;;4.07;;
30647;SDS011;17683;53.360;9.736;2022-11-25T08:41:31;9.52;;;3.97;;
30647;SDS011;17683;53.360;9.736;2022-11-25T08:43:59;13.18;;;4.43;;
30647;SDS011;17683;53.360;9.736;2022-11-25T08:46:28;19.73;;;4.82;;
30647;SDS011;17683;53.360;9.736;2022-11-25T08:48:57;16.85;;;5.00;;
30647;SDS011;17683;53.360;9.736;2022-11-25T08:51:24;21.25;;;6.15;;
30647;SDS011;17683;53.360;9.736;2022-11-25T08:53:52;19.30;;;5.60;;
30647;SDS011;17683;53.360;9.736;2022-11-25T08:56:18;14.02;;;4.32;;
30647;SDS011;17683;53.360;9.736;2022-11-25T08:58:45;14.50;;;4.97;;
30647;SDS011;17683;53.360;9.736;2022-11-25T09:01:11;16.10;;;4.65;;
30647;SDS011;17683;53.360;9.736;2022-11-25T09:03:38;17.25;;;5.05;;
30647;SDS011;17683;53.360;9.736;2022-11-25T09:06:07;14.50;;;4.65;;
30647;SDS011;17683;53.360;9.736;2022-11-25T09:08:33;10.40;;;4.88;;
30647;SDS011;17683;53.360;9.736;2022-11-25T09:11:00;11.82;;;4.72;;
30647;SDS011;17683;53.360;9.736;2022-11-25T09:13:26;13.43;;;5.00;;
30647;SDS011;17683;53.360;9.736;2022-11-25T09:15:52;12.80;;;4.80;;
30647;SDS011;17683;53.360;9.736;2022-11-25T09:18:19;17.77;;;4.75;;
30647;SDS011;17683;53.360;9.736;2022-11-25T09:20:49;17.92;;;4.90;;
30647;SDS011;17683;53.360;9.736;2022-11-25T09:23:15;18.60;;;5.50;;
30647;SDS011;17683;53.360;9.736;2022-11-25T09:25:41;14.65;;;5.50;;
30647;SDS011;17683;53.360;9.736;2022-11-25T09:28:08;13.63;;;5.95;;
30647;SDS011;17683;53.360;9.736;2022-11-25T09:30:36;9.00;;;3.97;;
30647;SDS011;17683;53.360;9.736;2022-11-25T09:33:01;13.38;;;4.82;;
30647;SDS011;17683;53.360;9.736;2022-11-25T09:35:27;8.75;;;3.90;;
30647;SDS011;17683;53.360;9.736;2022-11-25T09:37:53;14.10;;;4.80;;
30647;SDS011;17683;53.360;9.736;2022-11-25T09:54:48;14.30;;;4.17;;
30647;SDS011;17683;53.360;9.736;2022-11-25T10:00:15;12.50;;;4.57;;
30647;SDS011;17683;53.360;9.736;2022-11-25T10:02:55;16.38;;;5.25;;
30647;SDS011;17683;53.360;9.736;2022-11-25T10:05:48;18.08;;;5.63;;
30647;SDS011;17683;53.360;9.736;2022-11-25T10:08:25;18.95;;;4.90;;
30647;SDS011;17683;53.360;9.736;2022-11-25T10:16:46;11.48;;;4.95;;
30647;SDS011;17683;53.360;9.736;2022-11-25T10:19:32;14.68;;;4.72;;
30647;SDS011;17683;53.360;9.736;2022-11-25T10:24:44;8.35;;;4.20;;
30647;SDS011;17683;53.360;9.736;2022-11-25T10:27:14;14.05;;;5.00;;
30647;SDS011;17683;53.360;9.736;2022-11-25T10:29:47;13.55;;;4.30;;
30647;SDS011;17683;53.360;9.736;2022-11-25T10:32:22;12.88;;;5.18;;
30647;SDS011;17683;53.360;9.736;2022-11-25T10:34:56;15.25;;;5.10;;
30647;SDS011;17683;53.360;9.736;2022-11-25T10:37:26;12.95;;;4.72;;
30647;SDS011;17683;53.360;9.736;2022-11-25T10:40:00;9.68;;;4.38;;
30647;SDS011;17683;53.360;9.736;2022-11-25T10:42:26;14.27;;;4.40;;
30647;SDS011;17683;53.360;9.736;2022-11-25T10:44:53;19.65;;;5.50;;
30647;SDS011;17683;53.360;9.736;2022-11-25T10:52:59;15.38;;;4.45;;
30647;SDS011;17683;53.360;9.736;2022-11-25T10:55:32;11.57;;;5.07;;
30647;SDS011;17683;53.360;9.736;2022-11-25T10:58:18;15.82;;;5.72;;
30647;SDS011;17683;53.360;9.736;2022-11-25T11:01:00;15.15;;;4.47;;
30647;SDS011;17683;53.360;9.736;2022-11-25T11:04:03;15.95;;;4.38;;
30647;SDS011;17683;53.360;9.736;2022-11-25T11:06:35;15.57;;;4.78;;
30647;SDS011;17683;53.360;9.736;2022-11-25T11:09:08;12.75;;;5.13;;
30647;SDS011;17683;53.360;9.736;2022-11-25T11:12:21;12.70;;;3.60;;
30647;SDS011;17683;53.360;9.736;2022-11-25T11:14:49;12.70;;;4.13;;
30647;SDS011;17683;53.360;9.736;2022-11-25T11:17:35;16.90;;;4.45;;
30647;SDS011;17683;53.360;9.736;2022-11-25T11:22:33;19.98;;;5.28;;
30647;SDS011;17683;53.360;9.736;2022-11-25T11:25:33;13.65;;;4.85;;
30647;SDS011;17683;53.360;9.736;2022-11-25T11:27:54;13.98;;;4.38;;
30647;SDS011;17683;53.360;9.736;2022-11-25T11:30:31;17.83;;;4.63;;
30647;SDS011;17683;53.360;9.736;2022-11-25T11:33:04;13.27;;;4.50;;
30647;SDS011;17683;53.360;9.736;2022-11-25T11:35:52;9.00;;;4.60;;
30647;SDS011;17683;53.360;9.736;2022-11-25T11:38:30;22.38;;;5.68;;
30647;SDS011;17683;53.360;9.736;2022-11-25T11:43:45;13.60;;;4.40;;
30647;SDS011;17683;53.360;9.736;2022-11-25T12:04:03;13.00;;;5.57;;
30647;SDS011;17683;53.360;9.736;2022-11-25T12:06:57;15.77;;;4.90;;
30647;SDS011;17683;53.360;9.736;2022-11-25T12:09:23;13.68;;;4.70;;
30647;SDS011;17683;53.360;9.736;2022-11-25T12:11:53;13.43;;;4.70;;
30647;SDS011;17683;53.360;9.736;2022-11-25T12:14:56;14.48;;;4.80;;
30647;SDS011;17683;53.360;9.736;2022-11-25T12:17:24;17.83;;;4.82;;
30647;SDS011;17683;53.360;9.736;2022-11-25T12:20:02;14.55;;;3.95;;
30647;SDS011;17683;53.360;9.736;2022-11-25T12:22:41;17.58;;;5.65;;
30647;SDS011;17683;53.360;9.736;2022-11-25T12:25:10;16.15;;;4.47;;
30647;SDS011;17683;53.360;9.736;2022-11-25T12:30:27;16.15;;;5.43;;
30647;SDS011;17683;53.360;9.736;2022-11-25T12:33:17;18.50;;;4.82;;
30647;SDS011;17683;53.360;9.736;2022-11-25T12:36:05;13.85;;;5.25;;
30647;SDS011;17683;53.360;9.736;2022-11-25T12:38:52;20.23;;;5.47;;
30647;SDS011;17683;53.360;9.736;2022-11-25T12:46:58;15.13;;;4.57;;
30647;SDS011;17683;53.360;9.736;2022-11-25T12:49:30;18.92;;;5.38;;
30647;SDS011;17683;53.360;9.736;2022-11-25T12:59:54;14.15;;;4.82;;
30647;SDS011;17683;53.360;9.736;2022-11-25T13:14:17;12.20;;;5.88;;
30647;SDS011;17683;53.360;9.736;2022-11-25T13:16:44;13.27;;;5.35;;
30647;SDS011;17683;53.360;9.736;2022-11-25T13:19:15;22.40;;;6.85;;
30647;SDS011;17683;53.360;9.736;2022-11-25T13:22:03;18.17;;;6.75;;
30647;SDS011;17683;53.360;9.736;2022-11-25T13:24:33;19.05;;;6.13;;
30647;SDS011;17683;53.360;9.736;2022-11-25T13:27:03;12.25;;;5.30;;
30647;SDS011;17683;53.360;9.736;2022-11-25T13:31:59;13.13;;;6.20;;
30647;SDS011;17683;53.360;9.736;2022-11-25T13:34:32;13.85;;;5.35;;
30647;SDS011;17683;53.360;9.736;2022-11-25T13:37:00;16.42;;;5.53;;
30647;SDS011;17683;53.360;9.736;2022-11-25T13:39:46;16.80;;;6.70;;
30647;SDS011;17683;53.360;9.736;2022-11-25T13:42:12;19.08;;;6.57;;
30647;SDS011;17683;53.360;9.736;2022-11-25T13:44:55;14.93;;;6.07;;
30647;SDS011;17683;53.360;9.736;2022-11-25T13:47:39;18.52;;;6.50;;
30647;SDS011;17683;53.360;9.736;2022-11-25T13:52:40;16.05;;;6.20;;
30647;SDS011;17683;53.360;9.736;2022-11-25T13:57:46;18.35;;;6.93;;
30647;SDS011;17683;53.360;9.736;2022-11-25T14:02:50;18.10;;;7.72;;
30647;SDS011;17683;53.360;9.736;2022-11-25T14:08:05;11.38;;;6.90;;
30647;SDS011;17683;53.360;9.736;2022-11-25T14:19:00;13.50;;;7.72;;
30647;SDS011;17683;53.360;9.736;2022-11-25T14:25:18;16.58;;;7.95;;
30647;SDS011;17683;53.360;9.736;2022-11-25T14:28:14;17.90;;;8.25;;
30647;SDS011;17683;53.360;9.736;2022-11-25T14:31:03;20.83;;;9.57;;
30647;SDS011;17683;53.360;9.736;2022-11-25T14:33:33;12.43;;;8.25;;
30647;SDS011;17683;53.360;9.736;2022-11-25T14:36:08;19.83;;;8.80;;
30647;SDS011;17683;53.360;9.736;2022-11-25T14:44:22;19.92;;;10.38;;
30647;SDS011;17683;53.360;9.736;2022-11-25T14:46:54;18.63;;;10.40;;
30647;SDS011;17683;53.360;9.736;2022-11-25T14:49:22;20.83;;;9.43;;
30647;SDS011;17683;53.360;9.736;2022-11-25T14:51:48;20.63;;;11.23;;
30647;SDS011;17683;53.360;9.736;2022-11-25T14:54:16;23.15;;;9.68;;
30647;SDS011;17683;53.360;9.736;2022-11-25T14:56:42;22.80;;;11.57;;
30647;SDS011;17683;53.360;9.736;2022-11-25T14:59:10;20.13;;;10.68;;
30647;SDS011;17683;53.360;9.736;2022-11-25T15:01:37;18.23;;;9.38;;
30647;SDS011;17683;53.360;9.736;2022-11-25T15:06:37;20.63;;;11.63;;
30647;SDS011;17683;53.360;9.736;2022-11-25T15:09:22;21.83;;;11.98;;
30647;SDS011;17683;53.360;9.736;2022-11-25T15:12:00;19.98;;;10.43;;
30647;SDS011;17683;53.360;9.736;2022-11-25T15:14:28;21.15;;;10.85;;
30647;SDS011;17683;53.360;9.736;2022-11-25T15:16:57;19.50;;;11.52;;
30647;SDS011;17683;53.360;9.736;2022-11-25T15:19:24;22.85;;;12.00;;
30647;SDS011;17683;53.360;9.736;2022-11-25T15:21:59;20.15;;;11.80;;
30647;SDS011;17683;53.360;9.736;2022-11-25T15:27:12;19.15;;;11.85;;
30647;SDS011;17683;53.360;9.736;2022-11-25T15:29:44;21.50;;;11.32;;
30647;SDS011;17683;53.360;9.736;2022-11-25T15:32:15;21.98;;;12.10;;
30647;SDS011;17683;53.360;9.736;2022-11-25T15:34:52;22.88;;;13.93;;
30647;SDS011;17683;53.360;9.736;2022-11-25T15:37:19;22.45;;;12.90;;
30647;SDS011;17683;53.360;9.736;2022-11-25T15:39:45;26.55;;;13.35;;
30647;SDS011;17683;53.360;9.736;2022-11-25T15:42:14;28.65;;;13.07;;
30647;SDS011;17683;53.360;9.736;2022-11-25T15:44:59;26.63;;;14.40;;
30647;SDS011;17683;53.360;9.736;2022-11-25T15:47:32;29.52;;;14.52;;
30647;SDS011;17683;53.360;9.736;2022-11-25T15:52:38;32.33;;;13.90;;
30647;SDS011;17683;53.360;9.736;2022-11-25T15:57:57;24.77;;;13.85;;
30647;SDS011;17683;53.360;9.736;2022-11-25T16:03:46;24.83;;;14.43;;
30647;SDS011;17683;53.360;9.736;2022-11-25T16:06:21;24.35;;;12.25;;
30647;SDS011;17683;53.360;9.736;2022-11-25T16:11:18;22.48;;;13.55;;
30647;SDS011;17683;53.360;9.736;2022-11-25T16:13:53;22.67;;;13.07;;
30647;SDS011;17683;53.360;9.736;2022-11-25T16:16:39;28.58;;;13.95;;
30647;SDS011;17683;53.360;9.736;2022-11-25T16:21:38;24.98;;;13.10;;
30647;SDS011;17683;53.360;9.736;2022-11-25T16:26:39;23.23;;;12.38;;
30647;SDS011;17683;53.360;9.736;2022-11-25T16:32:29;16.80;;;10.93;;
30647;SDS011;17683;53.360;9.736;2022-11-25T16:34:59;22.80;;;13.00;;
30647;SDS011;17683;53.360;9.736;2022-11-25T16:37:37;23.17;;;13.10;;
30647;SDS011;17683;53.360;9.736;2022-11-25T16:40:03;20.35;;;12.60;;
30647;SDS011;17683;53.360;9.736;2022-11-25T16:42:29;22.85;;;12.40;;
30647;SDS011;17683;53.360;9.736;2022-11-25T16:44:57;19.75;;;13.27;;
30647;SDS011;17683;53.360;9.736;2022-11-25T16:47:25;21.13;;;13.23;;
30647;SDS011;17683;53.360;9.736;2022-11-25T16:49:51;24.00;;;14.02;;
30647;SDS011;17683;53.360;9.736;2022-11-25T16:52:17;22.00;;;14.02;;
30647;SDS011;17683;53.360;9.736;2022-11-25T16:54:42;17.15;;;13.23;;
30647;SDS011;17683;53.360;9.736;2022-11-25T16:57:15;21.00;;;12.98;;
30647;SDS011;17683;53.360;9.736;2022-11-25T16:59:44;25.25;;;15.32;;
30647;SDS011;17683;53.360;9.736;2022-11-25T17:02:16;22.65;;;12.95;;
30647;SDS011;17683;53.360;9.736;2022-11-25T17:04:44;31.40;;;13.82;;
30647;SDS011;17683;53.360;9.736;2022-11-25T17:07:11;19.10;;;13.68;;
30647;SDS011;17683;53.360;9.736;2022-11-25T17:09:38;24.00;;;13.90;;
30647;SDS011;17683;53.360;9.736;2022-11-25T17:12:05;20.83;;;14.07;;
30647;SDS011;17683;53.360;9.736;2022-11-25T17:14:35;30.95;;;15.02;;